createdAt,value
2023-03-20T00:00:32.122Z,10.46
2023-03-20T00:01:33.561Z,10.47
2023-03-20T00:02:35.005Z,10.48
2023-03-20T00:03:36.467Z,10.48
2023-03-20T00:04:38.357Z,10.48
2023-03-20T00:05:40.615Z,10.46
2023-03-20T00:06:42.061Z,10.45
2023-03-20T00:07:43.810Z,10.34
2023-03-20T00:08:46.812Z,10.34
2023-03-20T00:09:49.418Z,10.32
2023-03-20T00:10:50.955Z,10.20
2023-03-20T00:11:55.756Z,10.21
2023-03-20T00:12:57.635Z,10.25
2023-03-20T00:14:10.829Z,10.22
2023-03-20T00:15:31.054Z,10.21
2023-03-20T00:16:38.903Z,10.14
2023-03-20T00:17:40.537Z,10.12
2023-03-20T00:18:41.949Z,10.14
2023-03-20T00:19:43.608Z,10.12
2023-03-20T00:20:48.027Z,10.14
2023-03-20T00:21:50.996Z,10.15
2023-03-20T00:22:53.529Z,10.19
2023-03-20T00:23:55.442Z,10.21
2023-03-20T00:24:58.591Z,10.20
2023-03-20T00:26:00.041Z,10.23
2023-03-20T00:27:02.712Z,10.21
2023-03-20T00:28:32.576Z,10.18
2023-03-20T00:29:34.782Z,10.11
2023-03-20T00:30:36.197Z,10.00
2023-03-20T00:31:39.629Z,10.01
2023-03-20T00:32:45.583Z,10.04
2023-03-20T00:33:47.133Z,10.05
2023-03-20T00:34:49.124Z,10.06
2023-03-20T00:35:50.943Z,10.17
2023-03-20T00:36:59.442Z,10.22
2023-03-20T00:38:20.206Z,10.10
2023-03-20T00:39:27.756Z,10.06
2023-03-20T00:40:34.197Z,10.07
2023-03-20T00:41:38.583Z,10.09
2023-03-20T00:42:40.837Z,10.08
2023-03-20T00:43:42.314Z,10.03
2023-03-20T00:44:53.904Z,10.00
2023-03-20T00:45:56.130Z,9.99
2023-03-20T00:47:03.242Z,9.99
2023-03-20T00:48:05.885Z,9.99
2023-03-20T00:49:11.769Z,9.95
2023-03-20T00:50:23.576Z,9.93
2023-03-20T00:51:25.031Z,9.90
2023-03-20T00:52:26.543Z,9.90
2023-03-20T00:53:28.083Z,9.97
2023-03-20T00:54:30.118Z,9.99
2023-03-20T00:55:31.643Z,10.01
2023-03-20T00:56:40.468Z,10.06
2023-03-20T00:57:49.482Z,9.98
2023-03-20T00:58:51.125Z,9.92
2023-03-20T01:00:02.099Z,9.93
2023-03-20T01:01:03.955Z,9.91
2023-03-20T01:02:05.809Z,9.93
2023-03-20T01:03:22.217Z,9.95
2023-03-20T01:04:23.774Z,9.97
2023-03-20T01:05:27.528Z,9.95
2023-03-20T01:06:31.300Z,10.00
2023-03-20T01:07:32.805Z,9.98
2023-03-20T01:08:34.300Z,9.90
2023-03-20T01:09:36.085Z,9.87
2023-03-20T01:10:37.599Z,9.85
2023-03-20T01:11:41.047Z,9.89
2023-03-20T01:12:43.357Z,9.93
2023-03-20T01:13:44.891Z,9.83
2023-03-20T01:14:53.580Z,9.94
2023-03-20T01:15:58.031Z,10.00
2023-03-20T01:16:59.619Z,10.03
2023-03-20T01:18:01.122Z,10.03
2023-03-20T01:19:02.705Z,10.02
2023-03-20T01:20:10.879Z,10.00
2023-03-20T01:21:12.370Z,9.97
2023-03-20T01:22:14.344Z,9.95
2023-03-20T01:23:16.752Z,9.96
2023-03-20T01:24:18.549Z,9.99
2023-03-20T01:25:20.824Z,10.00
2023-03-20T01:26:27.680Z,9.96
2023-03-20T01:27:29.211Z,9.93
2023-03-20T01:28:31.474Z,9.89
2023-03-20T01:29:33.434Z,9.88
2023-03-20T01:30:34.888Z,9.93
2023-03-20T01:31:36.658Z,9.94
2023-03-20T01:32:38.189Z,9.98
2023-03-20T01:33:39.658Z,10.01
2023-03-20T01:34:41.118Z,10.07
2023-03-20T01:35:43.198Z,10.11
2023-03-20T01:36:57.638Z,10.13
2023-03-20T01:37:59.083Z,10.11
2023-03-20T01:39:00.726Z,10.10
2023-03-20T01:40:02.247Z,10.08
2023-03-20T01:41:12.254Z,10.12
2023-03-20T01:42:17.129Z,10.15
2023-03-20T01:43:21.317Z,10.16
2023-03-20T01:44:27.571Z,10.10
2023-03-20T01:45:36.218Z,10.07
2023-03-20T01:46:41.431Z,10.07
2023-03-20T01:47:42.942Z,10.03
2023-03-20T01:48:50.291Z,10.01
2023-03-20T01:50:20.118Z,10.07
2023-03-20T01:51:23.054Z,10.09
2023-03-20T01:52:24.596Z,10.01
2023-03-20T01:53:28.740Z,9.94
2023-03-20T01:54:39.654Z,9.94
2023-03-20T01:55:43.602Z,10.00
2023-03-20T01:56:52.599Z,10.00
2023-03-20T01:57:59.910Z,10.01
2023-03-20T01:59:18.439Z,9.99
2023-03-20T02:00:20.204Z,9.97
2023-03-20T02:01:21.817Z,9.94
2023-03-20T02:02:28.826Z,9.91
2023-03-20T02:03:30.870Z,9.91
2023-03-20T02:04:43.039Z,9.97
2023-03-20T02:05:44.969Z,10.00
2023-03-20T02:06:46.770Z,9.88
2023-03-20T02:07:59.299Z,9.87
2023-03-20T02:09:00.766Z,9.88
2023-03-20T02:10:10.093Z,9.80
2023-03-20T02:11:13.167Z,9.74
2023-03-20T02:12:15.709Z,9.81
2023-03-20T02:13:18.145Z,9.87
2023-03-20T02:14:21.118Z,9.95
2023-03-20T02:15:26.384Z,9.98
2023-03-20T02:16:28.027Z,9.98
2023-03-20T02:17:29.545Z,9.97
2023-03-20T02:18:32.105Z,9.96
2023-03-20T02:19:42.347Z,9.91
2023-03-20T02:21:08.780Z,9.92
2023-03-20T02:22:16.217Z,9.95
2023-03-20T02:23:45.919Z,9.97
2023-03-20T02:25:23.560Z,9.98
2023-03-20T02:26:42.591Z,9.89
2023-03-20T02:28:22.693Z,9.84
2023-03-20T02:29:54.798Z,9.84
2023-03-20T02:31:22.515Z,9.90
2023-03-20T02:32:40.874Z,9.94
2023-03-20T02:33:53.952Z,10.00
2023-03-20T02:35:04.836Z,10.07
2023-03-20T02:36:23.567Z,10.04
2023-03-20T02:37:58.835Z,10.07
2023-03-20T02:39:18.331Z,10.07
2023-03-20T02:40:36.644Z,10.00
2023-03-20T02:41:47.563Z,9.97
2023-03-20T02:42:51.903Z,9.96
2023-03-20T02:44:24.297Z,9.94
2023-03-20T02:45:48.490Z,9.96
2023-03-20T02:46:49.914Z,9.94
2023-03-20T02:48:13.716Z,9.92
2023-03-20T02:49:33.872Z,9.88
2023-03-20T02:50:45.129Z,9.94
2023-03-20T02:51:51.335Z,9.92
2023-03-20T02:53:21.053Z,9.96
2023-03-20T02:55:00.372Z,9.96
2023-03-20T02:56:18.422Z,9.95
2023-03-20T02:57:34.808Z,9.90
2023-03-20T02:58:39.445Z,9.96
2023-03-20T02:59:46.596Z,9.96
2023-03-20T03:01:08.653Z,9.98
2023-03-20T03:02:18.699Z,9.96
2023-03-20T03:03:28.886Z,9.90
2023-03-20T03:04:35.710Z,9.86
2023-03-20T03:05:49.747Z,9.88
2023-03-20T03:06:55.924Z,9.80
2023-03-20T03:08:00.735Z,9.84
2023-03-20T03:09:11.953Z,9.84
2023-03-20T03:10:27.713Z,9.87
2023-03-20T03:11:33.031Z,9.88
2023-03-20T03:12:38.629Z,9.75
2023-03-20T03:13:47.042Z,9.67
2023-03-20T03:15:00.181Z,9.72
2023-03-20T03:16:25.869Z,9.72
2023-03-20T03:17:32.300Z,9.70
2023-03-20T03:18:37.049Z,9.69
2023-03-20T03:19:41.908Z,9.73
2023-03-20T03:20:46.213Z,9.77
2023-03-20T03:21:48.655Z,9.84
2023-03-20T03:22:50.653Z,9.86
2023-03-20T03:23:52.953Z,9.85
2023-03-20T03:24:54.889Z,9.79
2023-03-20T03:25:59.461Z,9.78
2023-03-20T03:27:04.676Z,9.80
2023-03-20T03:28:24.812Z,9.86
2023-03-20T03:29:31.364Z,9.88
2023-03-20T03:30:37.382Z,9.85
2023-03-20T03:31:39.227Z,9.75
2023-03-20T03:32:49.458Z,9.65
2023-03-20T03:33:55.482Z,9.66
2023-03-20T03:34:57.769Z,9.65
2023-03-20T03:36:13.524Z,9.60
2023-03-20T03:37:26.676Z,9.57
2023-03-20T03:38:54.492Z,9.59
2023-03-20T03:40:15.770Z,9.53
2023-03-20T03:41:42.866Z,9.62
2023-03-20T03:42:56.034Z,9.63
2023-03-20T03:44:25.040Z,9.67
2023-03-20T03:45:34.125Z,9.60
2023-03-20T03:47:06.425Z,9.64
2023-03-20T03:48:14.785Z,9.63
2023-03-20T03:49:21.976Z,9.44
2023-03-20T03:50:35.998Z,9.42
2023-03-20T03:51:42.615Z,9.46
2023-03-20T03:52:45.815Z,9.56
2023-03-20T03:53:57.701Z,9.60
2023-03-20T03:55:10.614Z,9.61
2023-03-20T03:56:16.636Z,9.60
2023-03-20T03:57:24.145Z,9.64
2023-03-20T03:58:30.949Z,9.65
2023-03-20T03:59:43.409Z,9.71
2023-03-20T04:00:47.948Z,9.63
2023-03-20T04:01:51.844Z,9.64
2023-03-20T04:02:56.282Z,9.66
2023-03-20T04:04:04.954Z,9.65
2023-03-20T04:05:07.851Z,9.70
2023-03-20T04:06:12.921Z,9.69
2023-03-20T04:07:15.471Z,9.68
2023-03-20T04:08:16.961Z,9.68
2023-03-20T04:09:18.515Z,9.70
2023-03-20T04:10:20.407Z,9.70
2023-03-20T04:11:24.671Z,9.73
2023-03-20T04:12:35.451Z,9.64
2023-03-20T04:13:36.887Z,9.62
2023-03-20T04:14:38.335Z,9.61
2023-03-20T04:15:40.266Z,9.58
2023-03-20T04:16:42.303Z,9.60
2023-03-20T04:17:44.536Z,9.61
2023-03-20T04:18:46.390Z,9.58
2023-03-20T04:19:47.835Z,9.56
2023-03-20T04:20:49.322Z,9.62
2023-03-20T04:21:50.764Z,9.63
2023-03-20T04:22:52.414Z,9.62
2023-03-20T04:23:53.945Z,9.57
2023-03-20T04:24:55.390Z,9.59
2023-03-20T04:25:56.864Z,9.61
2023-03-20T04:26:58.284Z,9.58
2023-03-20T04:27:59.743Z,9.52
2023-03-20T04:29:01.797Z,9.53
2023-03-20T04:30:03.468Z,9.54
2023-03-20T04:31:05.387Z,9.59
2023-03-20T04:32:07.203Z,9.54
2023-03-20T04:33:08.740Z,9.49
2023-03-20T04:34:10.783Z,9.48
2023-03-20T04:35:12.574Z,9.53
2023-03-20T04:36:14.482Z,9.55
2023-03-20T04:37:15.957Z,9.56
2023-03-20T04:38:18.311Z,9.58
2023-03-20T04:39:19.782Z,9.53
2023-03-20T04:40:21.535Z,9.56
2023-03-20T04:41:23.007Z,9.56
2023-03-20T04:42:24.507Z,9.57
2023-03-20T04:43:26.101Z,9.50
2023-03-20T04:44:27.577Z,9.46
2023-03-20T04:45:29.362Z,9.46
2023-03-20T04:46:30.841Z,9.51
2023-03-20T04:47:32.285Z,9.46
2023-03-20T04:48:33.703Z,9.50
2023-03-20T04:49:35.374Z,9.50
2023-03-20T04:50:37.243Z,9.51
2023-03-20T04:51:38.676Z,9.51
2023-03-20T04:52:40.382Z,9.53
2023-03-20T04:53:41.924Z,9.42
2023-03-20T04:54:43.347Z,9.40
2023-03-20T04:55:45.657Z,9.35
2023-03-20T04:56:47.527Z,9.38
2023-03-20T04:57:49.422Z,9.36
2023-03-20T04:58:50.899Z,9.34
2023-03-20T04:59:52.670Z,9.37
2023-03-20T05:00:54.277Z,9.37
2023-03-20T05:01:55.838Z,9.42
2023-03-20T05:02:57.308Z,9.43
2023-03-20T05:04:01.027Z,9.37
2023-03-20T05:05:02.709Z,9.41
2023-03-20T05:06:04.296Z,9.35
2023-03-20T05:07:05.865Z,9.33
2023-03-20T05:08:07.305Z,9.28
2023-03-20T05:09:08.753Z,9.23
2023-03-20T05:10:11.443Z,9.29
2023-03-20T05:11:12.896Z,9.33
2023-03-20T05:12:14.528Z,9.29
2023-03-20T05:13:16.093Z,9.26
2023-03-20T05:14:17.532Z,9.30
2023-03-20T05:15:19.323Z,9.31
2023-03-20T05:16:21.071Z,9.32
2023-03-20T05:17:23.395Z,9.33
2023-03-20T05:18:24.832Z,9.31
2023-03-20T05:19:26.291Z,9.20
2023-03-20T05:20:27.878Z,9.27
2023-03-20T05:21:29.346Z,9.36
2023-03-20T05:22:30.805Z,9.42
2023-03-20T05:23:32.208Z,9.45
2023-03-20T05:24:33.984Z,9.47
2023-03-20T05:25:35.733Z,9.49
2023-03-20T05:26:37.376Z,9.45
2023-03-20T05:27:38.813Z,9.41
2023-03-20T05:28:40.254Z,9.33
2023-03-20T05:29:41.742Z,9.34
2023-03-20T05:30:43.219Z,9.31
2023-03-20T05:31:44.675Z,9.22
2023-03-20T05:32:46.406Z,9.16
2023-03-20T05:33:47.898Z,9.15
2023-03-20T05:34:49.666Z,9.14
2023-03-20T05:35:51.095Z,9.14
2023-03-20T05:36:52.509Z,9.10
2023-03-20T05:37:53.989Z,9.18
2023-03-20T05:38:55.467Z,9.02
2023-03-20T05:39:57.230Z,9.07
2023-03-20T05:41:02.132Z,9.09
2023-03-20T05:42:03.679Z,9.01
2023-03-20T05:43:05.319Z,8.94
2023-03-20T05:44:06.966Z,9.00
2023-03-20T05:45:09.161Z,9.08
2023-03-20T05:46:10.996Z,9.15
2023-03-20T05:47:12.488Z,9.16
2023-03-20T05:48:13.917Z,9.22
2023-03-20T05:49:15.945Z,9.25
2023-03-20T05:50:17.542Z,9.30
2023-03-20T05:51:18.983Z,9.36
2023-03-20T05:52:20.509Z,9.41
2023-03-20T05:53:21.957Z,9.42
2023-03-20T05:54:23.764Z,9.42
2023-03-20T05:55:25.603Z,9.42
2023-03-20T05:56:27.313Z,9.39
2023-03-20T05:57:28.827Z,9.41
2023-03-20T05:58:30.339Z,9.35
2023-03-20T05:59:31.809Z,9.36
2023-03-20T06:00:33.413Z,9.38
2023-03-20T06:01:34.890Z,9.39
2023-03-20T06:02:37.648Z,9.45
2023-03-20T06:03:39.223Z,9.49
2023-03-20T06:04:41.138Z,9.51
2023-03-20T06:05:42.655Z,9.54
2023-03-20T06:06:44.082Z,9.54
2023-03-20T06:07:45.622Z,9.49
2023-03-20T06:08:47.211Z,9.52
2023-03-20T06:09:49.048Z,9.58
2023-03-20T06:10:51.654Z,9.59
2023-03-20T06:11:53.090Z,9.59
2023-03-20T06:12:54.529Z,9.61
2023-03-20T06:13:58.439Z,9.63
2023-03-20T06:14:59.962Z,9.65
2023-03-20T06:16:01.646Z,9.68
2023-03-20T06:17:03.229Z,9.68
2023-03-20T06:18:04.733Z,9.64
2023-03-20T06:19:06.784Z,9.63
2023-03-20T06:20:09.727Z,9.46
2023-03-20T06:21:12.919Z,9.37
2023-03-20T06:22:14.378Z,9.40
2023-03-20T06:23:16.024Z,9.41
2023-03-20T06:24:18.155Z,9.46
2023-03-20T06:25:20.656Z,9.54
2023-03-20T06:26:22.290Z,9.59
2023-03-20T06:27:23.849Z,9.60
2023-03-20T06:28:25.342Z,9.60
2023-03-20T06:29:27.162Z,9.59
2023-03-20T06:30:28.546Z,9.64
2023-03-20T06:31:30.136Z,9.68
2023-03-20T06:32:32.038Z,9.72
2023-03-20T06:33:33.476Z,9.75
2023-03-20T06:34:34.933Z,9.67
2023-03-20T06:35:36.623Z,9.75
2023-03-20T06:36:38.258Z,9.77
2023-03-20T06:37:39.923Z,9.78
2023-03-20T06:38:41.722Z,9.64
2023-03-20T06:39:43.164Z,9.61
2023-03-20T06:40:45.216Z,9.62
2023-03-20T06:41:46.658Z,9.66
2023-03-20T06:42:48.171Z,9.67
2023-03-20T06:43:50.018Z,9.64
2023-03-20T06:44:51.586Z,9.69
2023-03-20T06:45:53.067Z,9.72
2023-03-20T06:46:54.604Z,9.78
2023-03-20T06:47:56.382Z,9.84
2023-03-20T06:48:57.893Z,9.81
2023-03-20T06:49:59.332Z,9.79
2023-03-20T06:51:00.969Z,9.83
2023-03-20T06:52:03.703Z,9.84
2023-03-20T06:53:05.309Z,9.82
2023-03-20T06:54:07.080Z,9.83
2023-03-20T06:55:09.052Z,9.88
2023-03-20T06:56:12.012Z,9.93
2023-03-20T06:57:15.270Z,9.95
2023-03-20T06:58:17.419Z,9.89
2023-03-20T06:59:19.050Z,9.88
2023-03-20T07:00:21.599Z,9.90
2023-03-20T07:01:23.740Z,9.92
2023-03-20T07:02:25.663Z,9.90
2023-03-20T07:03:27.442Z,9.90
2023-03-20T07:04:28.872Z,9.88
2023-03-20T07:05:30.319Z,9.84
2023-03-20T07:06:32.147Z,9.91
2023-03-20T07:07:34.287Z,9.94
2023-03-20T07:08:37.210Z,9.94
2023-03-20T07:09:38.656Z,9.93
2023-03-20T07:10:40.093Z,9.81
2023-03-20T07:11:41.709Z,9.91
2023-03-20T07:12:44.021Z,9.94
2023-03-20T07:13:48.651Z,9.95
2023-03-20T07:14:51.245Z,9.96
2023-03-20T07:16:03.740Z,9.90
2023-03-20T07:17:08.745Z,9.98
2023-03-20T07:18:10.347Z,10.02
2023-03-20T07:19:13.490Z,10.05
2023-03-20T07:20:15.270Z,10.09
2023-03-20T07:21:20.737Z,10.10
2023-03-20T07:22:26.984Z,10.12
2023-03-20T07:23:29.487Z,10.18
2023-03-20T07:24:33.657Z,10.21
2023-03-20T07:25:42.190Z,10.21
2023-03-20T07:26:44.189Z,10.20
2023-03-20T07:27:50.604Z,10.20
2023-03-20T07:28:52.095Z,10.23
2023-03-20T07:29:53.653Z,10.23
2023-03-20T07:30:55.752Z,10.25
2023-03-20T07:31:57.332Z,10.20
2023-03-20T07:32:58.823Z,10.20
2023-03-20T07:34:00.725Z,10.23
2023-03-20T07:35:02.227Z,10.30
2023-03-20T07:36:04.040Z,10.38
2023-03-20T07:37:05.737Z,10.36
2023-03-20T07:38:07.318Z,10.36
2023-03-20T07:39:09.622Z,10.37
2023-03-20T07:40:11.685Z,10.38
2023-03-20T07:41:13.504Z,10.38
2023-03-20T07:42:15.072Z,10.38
2023-03-20T07:43:17.425Z,10.37
2023-03-20T07:44:19.465Z,10.36
2023-03-20T07:45:20.991Z,10.37
2023-03-20T07:46:22.558Z,10.41
2023-03-20T07:47:24.132Z,10.41
2023-03-20T07:48:25.672Z,10.42
2023-03-20T07:49:27.266Z,10.44
2023-03-20T07:50:28.813Z,10.37
2023-03-20T07:51:30.382Z,10.38
2023-03-20T07:52:32.191Z,10.38
2023-03-20T07:53:33.709Z,10.47
2023-03-20T07:54:35.518Z,10.49
2023-03-20T07:55:37.215Z,10.53
2023-03-20T07:56:39.018Z,10.43
2023-03-20T07:57:40.424Z,10.42
2023-03-20T07:58:42.352Z,10.30
2023-03-20T07:59:44.066Z,10.30
2023-03-20T08:00:45.764Z,10.28
2023-03-20T08:01:47.223Z,10.33
2023-03-20T08:02:49.650Z,10.34
2023-03-20T08:03:51.482Z,10.34
2023-03-20T08:04:52.996Z,10.35
2023-03-20T08:05:55.141Z,10.39
2023-03-20T08:06:56.686Z,10.42
2023-03-20T08:07:58.492Z,10.48
2023-03-20T08:09:00.292Z,10.50
2023-03-20T08:10:02.328Z,10.50
2023-03-20T08:11:04.003Z,10.51
2023-03-20T08:12:05.890Z,10.50
2023-03-20T08:13:07.723Z,10.56
2023-03-20T08:14:09.137Z,10.57
2023-03-20T08:15:11.201Z,10.49
2023-03-20T08:16:12.730Z,10.49
2023-03-20T08:17:16.617Z,10.46
2023-03-20T08:18:22.742Z,10.56
2023-03-20T08:19:24.290Z,10.60
2023-03-20T08:20:26.330Z,10.58
2023-03-20T08:21:29.617Z,10.61
2023-03-20T08:22:31.436Z,10.66
2023-03-20T08:23:32.877Z,10.72
2023-03-20T08:24:34.383Z,10.69
2023-03-20T08:25:36.117Z,10.68
2023-03-20T08:26:37.802Z,10.68
2023-03-20T08:27:39.199Z,10.73
2023-03-20T08:28:47.462Z,10.79
2023-03-20T08:29:49.698Z,10.79
2023-03-20T08:30:51.242Z,10.86
2023-03-20T08:31:52.751Z,10.91
2023-03-20T08:32:54.385Z,10.94
2023-03-20T08:33:57.012Z,10.89
2023-03-20T08:34:58.493Z,10.91
2023-03-20T08:36:00.580Z,10.93
2023-03-20T08:37:05.365Z,10.97
2023-03-20T08:38:06.974Z,10.95
2023-03-20T08:39:09.114Z,10.94
2023-03-20T08:40:11.699Z,10.96
2023-03-20T08:41:13.188Z,10.99
2023-03-20T08:42:15.580Z,11.06
2023-03-20T08:43:17.409Z,11.05
2023-03-20T08:44:18.868Z,11.07
2023-03-20T08:45:20.448Z,10.96
2023-03-20T08:46:21.921Z,11.07
2023-03-20T08:47:24.113Z,11.08
2023-03-20T08:48:26.314Z,11.14
2023-03-20T08:49:28.012Z,11.16
2023-03-20T08:50:29.943Z,11.15
2023-03-20T08:51:31.551Z,11.18
2023-03-20T08:52:33.749Z,11.19
2023-03-20T08:53:35.524Z,11.19
2023-03-20T08:54:36.967Z,11.16
2023-03-20T08:55:38.777Z,11.17
2023-03-20T08:56:40.456Z,11.20
2023-03-20T08:57:42.373Z,11.28
2023-03-20T08:58:43.877Z,11.35
2023-03-20T08:59:45.499Z,11.36
2023-03-20T09:00:47.328Z,11.35
2023-03-20T09:01:50.411Z,11.34
2023-03-20T09:02:52.548Z,11.34
2023-03-20T09:03:54.014Z,11.25
2023-03-20T09:04:55.739Z,11.28
2023-03-20T09:05:57.455Z,11.24
2023-03-20T09:07:01.610Z,11.24
2023-03-20T09:08:03.082Z,11.19
2023-03-20T09:09:05.079Z,11.17
2023-03-20T09:10:07.264Z,11.19
2023-03-20T09:11:08.706Z,11.27
2023-03-20T09:12:10.211Z,11.18
2023-03-20T09:13:26.289Z,11.16
2023-03-20T09:14:28.801Z,11.16
2023-03-20T09:15:30.445Z,11.11
2023-03-20T09:16:31.994Z,11.14
2023-03-20T09:17:33.912Z,11.12
2023-03-20T09:18:35.996Z,11.17
2023-03-20T09:19:44.083Z,11.25
2023-03-20T09:20:46.954Z,11.23
2023-03-20T09:21:49.248Z,11.23
2023-03-20T09:22:50.836Z,11.29
2023-03-20T09:23:52.380Z,11.34
2023-03-20T09:24:53.865Z,11.37
2023-03-20T09:25:55.342Z,11.35
2023-03-20T09:26:56.920Z,11.27
2023-03-20T09:27:58.351Z,11.30
2023-03-20T09:29:00.100Z,11.23
2023-03-20T09:30:01.602Z,11.29
2023-03-20T09:31:03.631Z,11.40
2023-03-20T09:32:05.243Z,11.33
2023-03-20T09:33:07.235Z,11.37
2023-03-20T09:34:08.851Z,11.44
2023-03-20T09:35:10.337Z,11.50
2023-03-20T09:36:12.039Z,11.53
2023-03-20T09:37:13.768Z,11.53
2023-03-20T09:38:15.569Z,11.48
2023-03-20T09:39:17.057Z,11.43
2023-03-20T09:40:24.777Z,11.45
2023-03-20T09:41:56.654Z,11.50
2023-03-20T09:43:22.509Z,11.52
2023-03-20T09:44:51.638Z,11.53
2023-03-20T09:46:25.378Z,11.61
2023-03-20T09:47:36.093Z,11.63
2023-03-20T09:48:57.937Z,11.49
2023-03-20T09:50:22.405Z,11.36
2023-03-20T09:51:57.789Z,11.26
2023-03-20T09:53:08.153Z,11.25
2023-03-20T09:54:25.727Z,11.30
2023-03-20T09:55:35.173Z,11.28
2023-03-20T09:56:37.653Z,11.33
2023-03-20T09:57:42.537Z,11.39
2023-03-20T09:58:52.007Z,11.43
2023-03-20T10:00:05.755Z,11.43
2023-03-20T10:01:12.384Z,11.27
2023-03-20T10:02:29.886Z,11.32
2023-03-20T10:03:51.849Z,11.26
2023-03-20T10:04:55.723Z,11.20
2023-03-20T10:06:17.046Z,11.15
2023-03-20T10:07:19.075Z,11.21
2023-03-20T10:08:25.943Z,11.22
2023-03-20T10:09:31.797Z,11.11
2023-03-20T10:10:51.540Z,11.06
2023-03-20T10:12:04.004Z,11.00
2023-03-20T10:13:31.309Z,11.06
2023-03-20T10:15:04.988Z,11.16
2023-03-20T10:16:12.686Z,11.19
2023-03-20T10:17:21.086Z,11.24
2023-03-20T10:18:29.646Z,11.32
2023-03-20T10:19:36.605Z,11.37
2023-03-20T10:21:13.624Z,11.42
2023-03-20T10:22:36.264Z,11.49
2023-03-20T10:23:49.828Z,11.50
2023-03-20T10:24:57.474Z,11.48
2023-03-20T10:26:09.726Z,11.55
2023-03-20T10:27:22.720Z,11.50
2023-03-20T10:28:36.420Z,11.59
2023-03-20T10:29:52.294Z,11.64
2023-03-20T10:31:17.964Z,11.71
2023-03-20T10:32:30.187Z,11.73
2023-03-20T10:34:03.310Z,11.76
2023-03-20T10:35:23.271Z,11.78
2023-03-20T10:36:40.786Z,11.81
2023-03-20T10:38:15.552Z,11.84
2023-03-20T10:39:28.881Z,11.83
2023-03-20T10:40:36.256Z,11.82
2023-03-20T10:41:40.141Z,11.88
2023-03-20T10:42:47.427Z,11.89
2023-03-20T10:43:51.546Z,11.88
2023-03-20T10:45:14.410Z,11.87
2023-03-20T10:46:26.987Z,11.83
2023-03-20T10:47:32.720Z,11.79
2023-03-20T10:48:52.244Z,11.86
2023-03-20T10:50:23.779Z,11.81
2023-03-20T10:51:38.765Z,11.82
2023-03-20T10:52:41.910Z,11.87
2023-03-20T10:53:52.151Z,11.87
2023-03-20T10:55:00.850Z,11.90
2023-03-20T10:56:07.647Z,11.93
2023-03-20T10:57:23.778Z,11.93
2023-03-20T10:58:29.979Z,11.90
2023-03-20T10:59:41.118Z,11.92
2023-03-20T11:00:43.837Z,11.96
2023-03-20T11:01:45.458Z,11.99
2023-03-20T11:02:47.002Z,12.05
2023-03-20T11:03:48.482Z,12.09
2023-03-20T11:04:50.915Z,12.11
2023-03-20T11:06:21.849Z,11.98
2023-03-20T11:07:35.628Z,11.92
2023-03-20T11:08:41.394Z,11.93
2023-03-20T11:09:42.984Z,11.97
2023-03-20T11:10:58.713Z,11.98
2023-03-20T11:12:02.689Z,12.03
2023-03-20T11:13:16.900Z,12.08
2023-03-20T11:14:22.933Z,12.02
2023-03-20T11:15:33.072Z,12.05
2023-03-20T11:16:36.948Z,12.07
2023-03-20T11:17:38.990Z,12.09
2023-03-20T11:18:41.166Z,12.07
2023-03-20T11:19:42.743Z,12.09
2023-03-20T11:20:56.800Z,12.17
2023-03-20T11:22:01.004Z,12.16
2023-03-20T11:23:06.025Z,12.12
2023-03-20T11:24:24.169Z,12.14
2023-03-20T11:25:32.181Z,12.11
2023-03-20T11:26:42.131Z,12.13
2023-03-20T11:27:44.164Z,12.17
2023-03-20T11:28:53.025Z,12.21
2023-03-20T11:29:56.584Z,12.04
2023-03-20T11:31:05.867Z,11.99
2023-03-20T11:32:16.372Z,12.04
2023-03-20T11:33:20.190Z,12.03
2023-03-20T11:34:29.273Z,12.00
2023-03-20T11:35:31.659Z,12.01
2023-03-20T11:36:34.705Z,12.07
2023-03-20T11:37:43.560Z,12.12
2023-03-20T11:38:46.058Z,12.16
2023-03-20T11:40:09.299Z,12.20
2023-03-20T11:41:26.470Z,12.20
2023-03-20T11:42:30.821Z,12.18
2023-03-20T11:43:38.007Z,12.19
2023-03-20T11:44:41.603Z,12.23
2023-03-20T11:45:46.513Z,12.25
2023-03-20T11:46:56.598Z,12.19
2023-03-20T11:48:02.734Z,12.21
2023-03-20T11:49:20.846Z,12.23
2023-03-20T11:50:31.987Z,12.30
2023-03-20T11:51:35.678Z,12.26
2023-03-20T11:52:40.214Z,12.29
2023-03-20T11:53:48.242Z,12.25
2023-03-20T11:54:58.591Z,12.22
2023-03-20T11:56:05.405Z,12.25
2023-03-20T11:57:07.221Z,12.30
2023-03-20T11:58:17.152Z,12.34
2023-03-20T11:59:19.261Z,12.35
2023-03-20T12:00:26.394Z,12.38
2023-03-20T12:01:29.947Z,12.42
2023-03-20T12:02:32.433Z,12.48
2023-03-20T12:03:42.279Z,12.51
2023-03-20T12:04:45.758Z,12.56
2023-03-20T12:05:47.310Z,12.61
2023-03-20T12:07:16.642Z,12.56
2023-03-20T12:08:29.780Z,12.62
2023-03-20T12:09:49.040Z,12.59
2023-03-20T12:11:28.146Z,12.55
2023-03-20T12:12:52.312Z,12.53
2023-03-20T12:13:58.680Z,12.61
2023-03-20T12:15:12.534Z,12.62
2023-03-20T12:16:19.327Z,12.54
2023-03-20T12:17:32.127Z,12.46
2023-03-20T12:18:41.972Z,12.59
2023-03-20T12:19:45.966Z,12.53
2023-03-20T12:21:16.491Z,12.60
2023-03-20T12:22:21.927Z,12.61
2023-03-20T12:23:39.969Z,12.63
2023-03-20T12:24:54.867Z,12.65
2023-03-20T12:26:10.328Z,12.65
2023-03-20T12:27:28.523Z,12.67
2023-03-20T12:28:40.821Z,12.66
2023-03-20T12:29:55.320Z,12.69
2023-03-20T12:31:35.916Z,12.75
2023-03-20T12:32:45.962Z,12.79
2023-03-20T12:34:16.406Z,12.80
2023-03-20T12:35:30.435Z,12.84
2023-03-20T12:36:57.377Z,12.88
2023-03-20T12:37:59.907Z,12.82
2023-03-20T12:39:07.062Z,12.81
2023-03-20T12:40:20.526Z,12.86
2023-03-20T12:41:31.059Z,12.91
2023-03-20T12:42:58.329Z,12.94
2023-03-20T12:44:02.588Z,12.96
2023-03-20T12:45:33.506Z,12.97
2023-03-20T12:46:41.865Z,12.94
2023-03-20T12:48:02.216Z,12.96
2023-03-20T12:49:18.536Z,12.94
2023-03-20T12:50:41.139Z,12.93
2023-03-20T12:52:06.338Z,12.93
2023-03-20T12:53:21.446Z,12.91
2023-03-20T12:54:34.936Z,12.89
2023-03-20T12:55:54.427Z,12.87
2023-03-20T12:57:23.942Z,12.91
2023-03-20T12:58:28.220Z,12.96
2023-03-20T12:59:58.810Z,12.98
2023-03-20T13:01:21.040Z,13.05
2023-03-20T13:02:44.559Z,13.05
2023-03-20T13:04:07.490Z,13.03
2023-03-20T13:05:27.108Z,13.03
2023-03-20T13:06:54.940Z,12.98
2023-03-20T13:08:30.405Z,12.93
2023-03-20T13:09:39.047Z,12.89
2023-03-20T13:10:48.763Z,12.90
2023-03-20T13:12:21.224Z,12.90
2023-03-20T13:13:33.494Z,12.93
2023-03-20T13:15:14.596Z,12.97
2023-03-20T13:16:53.810Z,12.97
2023-03-20T13:17:58.231Z,12.92
2023-03-20T13:19:21.654Z,12.93
2023-03-20T13:20:41.919Z,12.98
2023-03-20T13:21:50.498Z,12.99
2023-03-20T13:23:05.631Z,12.94
2023-03-20T13:24:17.165Z,12.95
2023-03-20T13:25:56.448Z,12.98
2023-03-20T13:27:16.832Z,13.00
2023-03-20T13:28:39.613Z,13.07
2023-03-20T13:29:56.178Z,13.10
2023-03-20T13:31:21.424Z,13.14
2023-03-20T13:32:33.869Z,13.17
2023-03-20T13:33:47.297Z,13.22
2023-03-20T13:35:10.401Z,13.22
2023-03-20T13:36:14.741Z,13.26
2023-03-20T13:37:27.156Z,13.29
2023-03-20T13:38:35.861Z,13.31
2023-03-20T13:39:46.294Z,13.33
2023-03-20T13:40:58.529Z,13.31
2023-03-20T13:42:01.638Z,13.29
2023-03-20T13:43:21.599Z,13.28
2023-03-20T13:44:28.094Z,13.27
2023-03-20T13:45:33.617Z,13.28
2023-03-20T13:46:44.486Z,13.28
2023-03-20T13:47:47.421Z,13.26
2023-03-20T13:48:51.080Z,13.23
2023-03-20T13:50:21.590Z,13.17
2023-03-20T13:51:35.190Z,13.12
2023-03-20T13:52:47.446Z,13.06
2023-03-20T13:54:02.775Z,13.02
2023-03-20T13:55:26.166Z,13.01
2023-03-20T13:56:42.835Z,13.01
2023-03-20T13:58:07.114Z,13.03
2023-03-20T13:59:35.588Z,13.05
2023-03-20T14:00:51.764Z,13.08
2023-03-20T14:02:05.294Z,13.02
2023-03-20T14:03:39.021Z,13.08
2023-03-20T14:04:41.047Z,13.06
2023-03-20T14:05:44.224Z,13.07
2023-03-20T14:06:51.923Z,13.10
2023-03-20T14:07:58.166Z,13.05
2023-03-20T14:09:00.084Z,12.98
2023-03-20T14:10:21.632Z,13.01
2023-03-20T14:11:32.422Z,13.01
2023-03-20T14:12:34.000Z,13.01
2023-03-20T14:13:36.262Z,13.01
2023-03-20T14:15:02.974Z,13.02
2023-03-20T14:16:09.371Z,12.95
2023-03-20T14:17:22.360Z,12.88
2023-03-20T14:18:26.443Z,12.86
2023-03-20T14:19:29.759Z,12.86
2023-03-20T14:20:39.398Z,12.83
2023-03-20T14:21:46.185Z,12.82
2023-03-20T14:22:49.134Z,12.85
2023-03-20T14:23:51.585Z,12.84
2023-03-20T14:25:20.800Z,12.84
2023-03-20T14:26:37.953Z,12.85
2023-03-20T14:28:06.594Z,12.87
2023-03-20T14:29:11.358Z,12.87
2023-03-20T14:30:31.010Z,12.88
2023-03-20T14:31:37.905Z,12.90
2023-03-20T14:32:52.712Z,12.89
2023-03-20T14:34:01.012Z,12.84
2023-03-20T14:35:35.768Z,12.82
2023-03-20T14:37:05.686Z,12.81
2023-03-20T14:38:29.602Z,12.77
2023-03-20T14:39:43.807Z,12.77
2023-03-20T14:40:52.624Z,12.77